createdAt,value
2017-12-30T00:00:11.426Z,921.07
2017-12-30T00:00:39.512Z,921.09
2017-12-30T00:01:07.505Z,921.09
2017-12-30T00:01:35.577Z,921.1
2017-12-30T00:02:03.745Z,921.12
2017-12-30T00:02:31.730Z,921.12
2017-12-30T00:02:59.803Z,921.15
2017-12-30T00:04:11.032Z,921.16
2017-12-30T00:04:39.098Z,921.21
2017-12-30T00:05:06.975Z,921.2
2017-12-30T00:05:34.953Z,921.23
2017-12-30T00:06:02.936Z,921.24
2017-12-30T00:06:31.018Z,921.23
2017-12-30T00:06:59.116Z,921.27
2017-12-30T00:07:27.183Z,921.26
2017-12-30T00:07:55.251Z,921.29
2017-12-30T00:08:23.246Z,921.29
2017-12-30T00:08:51.419Z,921.31
2017-12-30T00:10:02.555Z,921.27
2017-12-30T00:10:30.718Z,921.31
2017-12-30T00:10:58.799Z,921.37
2017-12-30T00:11:26.580Z,921.32
2017-12-30T00:11:54.672Z,921.34
2017-12-30T00:12:22.656Z,921.34
2017-12-30T00:12:50.750Z,921.33
2017-12-30T00:13:18.917Z,921.35
2017-12-30T00:13:47.088Z,921.33
2017-12-30T00:14:15.182Z,921.3
2017-12-30T00:14:43.251Z,921.3
2017-12-30T00:15:54.383Z,921.29
2017-12-30T00:16:22.449Z,921.32
2017-12-30T00:16:50.526Z,921.34
2017-12-30T00:17:18.606Z,921.32
2017-12-30T00:17:46.493Z,921.33
2017-12-30T00:18:14.476Z,921.35
2017-12-30T00:18:42.673Z,921.37
2017-12-30T00:19:10.736Z,921.33
2017-12-30T00:19:38.803Z,921.35
2017-12-30T00:20:06.897Z,921.34
2017-12-30T00:20:34.958Z,921.37
2017-12-30T00:21:46.093Z,921.39
2017-12-30T00:22:14.057Z,921.39
2017-12-30T00:22:42.141Z,921.37
2017-12-30T00:23:10.215Z,921.37
2017-12-30T00:23:38.208Z,921.37
2017-12-30T00:24:06.090Z,921.38
2017-12-30T00:24:34.285Z,921.37
2017-12-30T00:25:02.359Z,921.38
2017-12-30T00:25:30.429Z,921.38
2017-12-30T00:25:58.626Z,921.4
2017-12-30T00:26:26.796Z,921.41
2017-12-30T00:27:37.935Z,921.4
2017-12-30T00:28:06.005Z,921.42
2017-12-30T00:28:34.079Z,921.45
2017-12-30T00:29:01.864Z,921.44
2017-12-30T00:29:29.854Z,921.47
2017-12-30T00:29:57.941Z,921.46
2017-12-30T00:30:26.135Z,921.48
2017-12-30T00:30:54.208Z,921.5
2017-12-30T00:31:22.275Z,921.5
2017-12-30T00:31:50.473Z,921.51
2017-12-30T00:32:18.649Z,921.49
2017-12-30T00:33:29.788Z,921.47
2017-12-30T00:33:57.955Z,921.54
2017-12-30T00:34:26.136Z,921.49
2017-12-30T00:34:54.220Z,921.51
2017-12-30T00:35:22.313Z,921.49
2017-12-30T00:35:50.297Z,921.53
2017-12-30T00:36:18.394Z,921.56
2017-12-30T00:36:46.468Z,921.55
2017-12-30T00:37:14.534Z,921.54
2017-12-30T00:37:42.733Z,921.6
2017-12-30T00:38:10.908Z,921.61
2017-12-30T00:39:21.944Z,921.62
2017-12-30T00:39:50.008Z,921.66
2017-12-30T00:40:17.990Z,921.68
2017-12-30T00:40:45.973Z,921.65
2017-12-30T00:41:14.166Z,921.71
2017-12-30T00:41:42.350Z,921.68
2017-12-30T00:42:10.449Z,921.73
2017-12-30T00:42:38.420Z,921.7
2017-12-30T00:43:06.493Z,921.69
2017-12-30T00:43:34.589Z,921.73
2017-12-30T00:44:02.765Z,921.72
2017-12-30T00:45:13.899Z,921.69
2017-12-30T00:45:41.965Z,921.68
2017-12-30T00:46:10.037Z,921.68
2017-12-30T00:46:38.120Z,921.73
2017-12-30T00:47:06.207Z,921.66
2017-12-30T00:47:34.195Z,921.68
2017-12-30T00:48:02.300Z,921.65
2017-12-30T00:48:30.466Z,921.66
2017-12-30T00:48:58.634Z,921.66
2017-12-30T00:49:26.830Z,921.64
2017-12-30T00:49:54.704Z,921.66
2017-12-30T00:51:05.838Z,921.6
2017-12-30T00:51:33.907Z,921.62
2017-12-30T00:52:02.091Z,921.63
2017-12-30T00:52:30.171Z,921.62
2017-12-30T00:52:58.363Z,921.65
2017-12-30T00:53:26.444Z,921.58
2017-12-30T00:53:54.544Z,921.62
2017-12-30T00:54:22.617Z,921.65
2017-12-30T00:54:50.782Z,921.61
2017-12-30T00:55:18.972Z,921.65
2017-12-30T00:55:47.140Z,921.66
2017-12-30T00:56:58.274Z,921.66
2017-12-30T00:57:26.244Z,921.69
2017-12-30T00:57:54.422Z,921.65
2017-12-30T00:58:22.599Z,921.66
2017-12-30T00:58:50.584Z,921.65
2017-12-30T00:59:18.767Z,921.69
2017-12-30T00:59:46.969Z,921.7
2017-12-30T01:00:15.141Z,921.66
2017-12-30T01:00:43.310Z,921.66
2017-12-30T01:01:11.321Z,921.66
2017-12-30T01:01:39.375Z,921.67
2017-12-30T01:02:50.609Z,921.66
2017-12-30T01:03:18.676Z,921.67
2017-12-30T01:03:46.752Z,921.67
2017-12-30T01:04:14.832Z,921.68
2017-12-30T01:04:42.926Z,921.69
2017-12-30T01:05:11.006Z,921.68
2017-12-30T01:05:39.203Z,921.71
2017-12-30T01:06:07.171Z,921.7
2017-12-30T01:06:35.137Z,921.7
2017-12-30T01:07:03.330Z,921.7
2017-12-30T01:07:31.308Z,921.71
2017-12-30T01:08:42.444Z,921.77
2017-12-30T01:09:10.514Z,921.76
2017-12-30T01:09:38.691Z,921.74
2017-12-30T01:10:06.572Z,921.78
2017-12-30T01:10:34.558Z,921.79
2017-12-30T01:11:02.738Z,921.8
2017-12-30T01:11:30.835Z,921.81
2017-12-30T01:11:59.004Z,921.8
2017-12-30T01:12:27.173Z,921.81
2017-12-30T01:12:55.359Z,921.78
2017-12-30T01:13:23.441Z,921.81
2017-12-30T01:14:34.669Z,921.79
2017-12-30T01:15:02.834Z,921.77
2017-12-30T01:15:31.013Z,921.78
2017-12-30T01:15:59.094Z,921.77
2017-12-30T01:16:27.288Z,921.77
2017-12-30T01:16:55.465Z,921.77
2017-12-30T01:17:23.557Z,921.75
2017-12-30T01:17:51.724Z,921.73
2017-12-30T01:18:19.887Z,921.76
2017-12-30T01:18:48.075Z,921.74
2017-12-30T01:19:16.145Z,921.73
2017-12-30T01:20:27.075Z,921.73
2017-12-30T01:20:55.138Z,921.73
2017-12-30T01:21:23.115Z,921.73
2017-12-30T01:21:51.197Z,921.67
2017-12-30T01:22:19.273Z,921.66
2017-12-30T01:22:47.355Z,921.66
2017-12-30T01:23:15.554Z,921.69
2017-12-30T01:23:43.725Z,921.65
2017-12-30T01:24:11.591Z,921.63
2017-12-30T01:24:39.683Z,921.68
2017-12-30T01:25:07.856Z,921.68
2017-12-30T01:26:18.991Z,921.65
2017-12-30T01:26:47.053Z,921.62
2017-12-30T01:27:15.228Z,921.63
2017-12-30T01:27:43.406Z,921.61
2017-12-30T01:28:11.640Z,921.62
2017-12-30T01:28:39.673Z,921.61
2017-12-30T01:29:07.672Z,921.61
2017-12-30T01:29:35.632Z,921.62
2017-12-30T01:30:03.801Z,921.6
2017-12-30T01:30:31.889Z,921.63
2017-12-30T01:31:00.065Z,921.59
2017-12-30T01:32:11.195Z,921.6
2017-12-30T01:32:39.158Z,921.58
2017-12-30T01:33:07.240Z,921.57
2017-12-30T01:33:35.315Z,921.6
2017-12-30T01:34:03.400Z,921.57
2017-12-30T01:34:31.280Z,921.55
2017-12-30T01:34:59.376Z,921.53
2017-12-30T01:35:27.445Z,921.56
2017-12-30T01:35:55.512Z,921.54
2017-12-30T01:36:23.606Z,921.58
2017-12-30T01:36:51.680Z,921.54
2017-12-30T01:38:02.911Z,921.53
2017-12-30T01:38:31.076Z,921.52
2017-12-30T01:38:59.150Z,921.51
2017-12-30T01:39:27.130Z,921.49
2017-12-30T01:39:55.215Z,921.52
2017-12-30T01:40:23.297Z,921.48
2017-12-30T01:40:51.395Z,921.49
2017-12-30T01:41:19.468Z,921.48
2017-12-30T01:41:47.434Z,921.41
2017-12-30T01:42:15.525Z,921.44
2017-12-30T01:42:43.492Z,921.47
2017-12-30T01:43:54.429Z,921.46
2017-12-30T01:44:22.391Z,921.49
2017-12-30T01:44:50.366Z,921.49
2017-12-30T01:45:18.341Z,921.49
2017-12-30T01:45:46.527Z,921.47
2017-12-30T01:46:14.512Z,921.44
2017-12-30T01:46:42.507Z,921.49
2017-12-30T01:47:10.675Z,921.48
2017-12-30T01:47:38.642Z,921.49
2017-12-30T01:48:06.832Z,921.51
2017-12-30T01:48:35.000Z,921.49
2017-12-30T01:49:46.231Z,921.49
2017-12-30T01:50:14.298Z,921.49
2017-12-30T01:50:42.378Z,921.46
2017-12-30T01:51:10.259Z,921.44
2017-12-30T01:51:38.351Z,921.41
2017-12-30T01:52:06.328Z,921.41
2017-12-30T01:52:34.425Z,921.41
2017-12-30T01:53:02.485Z,921.42
2017-12-30T01:53:30.448Z,921.42
2017-12-30T01:53:58.649Z,921.41
2017-12-30T01:54:26.820Z,921.41
2017-12-30T01:55:37.855Z,921.42
2017-12-30T01:56:06.019Z,921.38
2017-12-30T01:56:33.901Z,921.37
2017-12-30T01:57:01.985Z,921.34
2017-12-30T01:57:30.075Z,921.36
2017-12-30T01:57:58.158Z,921.39
2017-12-30T01:58:26.248Z,921.33
2017-12-30T01:58:54.213Z,921.37
2017-12-30T01:59:22.174Z,921.35
2017-12-30T01:59:50.268Z,921.34
2017-12-30T02:00:18.344Z,921.33
2017-12-30T02:01:29.581Z,921.33
2017-12-30T02:01:57.638Z,921.35
2017-12-30T02:02:25.715Z,921.37
2017-12-30T02:02:53.796Z,921.34
2017-12-30T02:03:21.781Z,921.37
2017-12-30T02:03:49.961Z,921.36
2017-12-30T02:04:18.060Z,921.37
2017-12-30T02:04:46.131Z,921.32
2017-12-30T02:05:14.297Z,921.35
2017-12-30T02:05:42.487Z,921.36
2017-12-30T02:06:10.457Z,921.38
2017-12-30T02:07:21.693Z,921.32
2017-12-30T02:07:49.755Z,921.33
2017-12-30T02:08:17.825Z,921.35
2017-12-30T02:08:45.903Z,921.34
2017-12-30T02:09:14.089Z,921.31
2017-12-30T02:09:42.173Z,921.36
2017-12-30T02:10:10.366Z,921.35
2017-12-30T02:10:38.440Z,921.37
2017-12-30T02:11:06.606Z,921.37
2017-12-30T02:11:34.701Z,921.34
2017-12-30T02:12:02.669Z,921.33
2017-12-30T02:13:13.797Z,921.32
2017-12-30T02:13:41.965Z,921.3
2017-12-30T02:14:10.040Z,921.32
2017-12-30T02:14:38.115Z,921.3
2017-12-30T02:15:06.201Z,921.31
2017-12-30T02:15:34.284Z,921.29
2017-12-30T02:16:02.480Z,921.29
2017-12-30T02:16:30.543Z,921.31
2017-12-30T02:16:58.511Z,921.31
2017-12-30T02:17:26.704Z,921.28
2017-12-30T02:17:54.774Z,921.3
2017-12-30T02:19:05.902Z,921.31
2017-12-30T02:19:34.069Z,921.29
2017-12-30T02:20:02.141Z,921.28
2017-12-30T02:20:30.313Z,921.29
2017-12-30T02:20:58.303Z,921.28
2017-12-30T02:21:26.183Z,921.25
2017-12-30T02:21:54.276Z,921.23
2017-12-30T02:22:22.346Z,921.25
2017-12-30T02:22:50.512Z,921.24
2017-12-30T02:23:18.606Z,921.25
2017-12-30T02:23:46.774Z,921.23
2017-12-30T02:24:58.007Z,921.23
2017-12-30T02:25:26.069Z,921.2
2017-12-30T02:25:54.148Z,921.21
2017-12-30T02:26:22.225Z,921.16
2017-12-30T02:26:50.211Z,921.18
2017-12-30T02:27:18.094Z,921.18
2017-12-30T02:27:46.293Z,921.15
2017-12-30T02:28:14.467Z,921.12
2017-12-30T02:28:42.435Z,921.13
2017-12-30T02:29:10.527Z,921.12
2017-12-30T02:29:38.599Z,921.1
2017-12-30T02:30:49.533Z,921.09
2017-12-30T02:31:17.491Z,921.12
2017-12-30T02:31:45.569Z,921.12
2017-12-30T02:32:13.548Z,921.13
2017-12-30T02:32:41.535Z,921.13
2017-12-30T02:33:09.520Z,921.13
2017-12-30T02:33:37.718Z,921.16
2017-12-30T02:34:05.788Z,921.16
2017-12-30T02:34:33.852Z,921.19
2017-12-30T02:35:01.949Z,921.18
2017-12-30T02:35:30.021Z,921.18
2017-12-30T02:36:41.056Z,921.19
2017-12-30T02:37:09.121Z,921.24
2017-12-30T02:37:37.194Z,921.23
2017-12-30T02:38:05.074Z,921.23
2017-12-30T02:38:33.165Z,921.22
2017-12-30T02:39:01.342Z,921.22
2017-12-30T02:39:29.442Z,921.24
2017-12-30T02:39:57.408Z,921.18
2017-12-30T02:40:25.575Z,921.22
2017-12-30T02:40:53.779Z,921.21
2017-12-30T02:41:21.853Z,921.18
2017-12-30T02:42:32.888Z,921.19
2017-12-30T02:43:01.054Z,921.18
2017-12-30T02:43:29.127Z,921.2
2017-12-30T02:43:57.012Z,921.19
2017-12-30T02:44:25.203Z,921.16
2017-12-30T02:44:53.385Z,921.18
2017-12-30T02:45:21.583Z,921.13
2017-12-30T02:45:49.553Z,921.18
2017-12-30T02:46:17.619Z,921.16
2017-12-30T02:46:45.711Z,921.19
2017-12-30T02:47:13.790Z,921.21
2017-12-30T02:48:24.924Z,921.19
2017-12-30T02:48:53.089Z,921.19
2017-12-30T02:49:21.065Z,921.2
2017-12-30T02:49:49.241Z,921.18
2017-12-30T02:50:17.328Z,921.19
2017-12-30T02:50:45.313Z,921.23
2017-12-30T02:51:13.408Z,921.22
2017-12-30T02:51:41.379Z,921.19
2017-12-30T02:52:09.443Z,921.27
2017-12-30T02:52:37.634Z,921.25
2017-12-30T02:53:05.702Z,921.3
2017-12-30T02:54:16.733Z,921.29
2017-12-30T02:54:44.796Z,921.31
2017-12-30T02:55:12.877Z,921.35
2017-12-30T02:55:40.948Z,921.34
2017-12-30T02:56:09.049Z,921.36
2017-12-30T02:56:37.028Z,921.39
2017-12-30T02:57:05.122Z,921.38
2017-12-30T02:57:33.098Z,921.4
2017-12-30T02:58:01.164Z,921.41
2017-12-30T02:58:29.252Z,921.41
2017-12-30T02:58:57.426Z,921.42
2017-12-30T03:00:08.560Z,921.45
2017-12-30T03:00:36.719Z,921.62
2017-12-30T03:01:04.795Z,921.77
2017-12-30T03:01:32.779Z,921.88
2017-12-30T03:02:00.773Z,921.93
2017-12-30T03:02:28.759Z,922.01
2017-12-30T03:02:56.844Z,922.09
2017-12-30T03:03:24.817Z,922.16
2017-12-30T03:03:52.986Z,922.15
2017-12-30T03:04:21.184Z,922.12
2017-12-30T03:04:49.263Z,922.08
2017-12-30T03:06:00.486Z,922.11
2017-12-30T03:06:28.549Z,922.17
2017-12-30T03:06:56.535Z,922.15
2017-12-30T03:07:24.519Z,922.14
2017-12-30T03:07:52.706Z,922.17
2017-12-30T03:08:20.889Z,922.18
2017-12-30T03:08:48.883Z,922.17
2017-12-30T03:09:16.856Z,922.18
2017-12-30T03:09:44.923Z,922.23
2017-12-30T03:10:13.112Z,922.24
2017-12-30T03:10:41.281Z,922.26
2017-12-30T03:11:52.315Z,922.26
2017-12-30T03:12:20.478Z,922.29
2017-12-30T03:12:48.455Z,922.28
2017-12-30T03:13:16.539Z,922.3
2017-12-30T03:13:44.723Z,922.34
2017-12-30T03:14:12.903Z,922.4
2017-12-30T03:14:40.898Z,922.36
2017-12-30T03:15:08.872Z,922.35
2017-12-30T03:15:36.936Z,922.36
2017-12-30T03:16:05.141Z,922.37
2017-12-30T03:16:33.308Z,922.34
2017-12-30T03:17:44.447Z,922.34
2017-12-30T03:18:12.612Z,922.4
2017-12-30T03:18:40.688Z,922.43
2017-12-30T03:19:08.572Z,922.47
2017-12-30T03:19:36.756Z,922.49
2017-12-30T03:20:04.741Z,922.42
2017-12-30T03:20:32.837Z,922.46
2017-12-30T03:21:00.811Z,922.46
2017-12-30T03:21:28.876Z,922.45
2017-12-30T03:21:56.967Z,922.49
2017-12-30T03:22:24.943Z,922.5
2017-12-30T03:23:36.178Z,922.43
2017-12-30T03:24:04.141Z,922.44
2017-12-30T03:24:32.212Z,922.48
2017-12-30T03:25:00.093Z,922.47
2017-12-30T03:25:28.179Z,922.48
2017-12-30T03:25:56.363Z,922.41
2017-12-30T03:26:24.555Z,922.4
2017-12-30T03:26:52.518Z,922.43
2017-12-30T03:27:20.588Z,922.39
2017-12-30T03:27:48.583Z,922.36
2017-12-30T03:28:16.757Z,922.33
2017-12-30T03:29:27.888Z,922.41
2017-12-30T03:29:55.951Z,922.44
2017-12-30T03:30:23.932Z,922.44
2017-12-30T03:30:51.910Z,922.44
2017-12-30T03:31:20.001Z,922.38
2017-12-30T03:31:47.884Z,922.41
2017-12-30T03:32:16.079Z,922.44
2017-12-30T03:32:44.052Z,922.4
2017-12-30T03:33:11.923Z,922.44
2017-12-30T03:33:40.107Z,922.45
2017-12-30T03:34:08.280Z,922.43
2017-12-30T03:35:19.319Z,922.33
2017-12-30T03:35:47.377Z,922.4
2017-12-30T03:36:15.551Z,922.3
2017-12-30T03:36:43.726Z,922.38
2017-12-30T03:37:11.716Z,922.32
2017-12-30T03:37:39.798Z,922.24
2017-12-30T03:38:07.890Z,922.23
2017-12-30T03:38:36.056Z,922.23
2017-12-30T03:39:04.019Z,922.22
2017-12-30T03:39:32.209Z,922.16
2017-12-30T03:40:00.180Z,922.17
2017-12-30T03:41:11.313Z,922.14
2017-12-30T03:41:39.380Z,922.15
2017-12-30T03:42:07.456Z,922.11
2017-12-30T03:42:35.337Z,922.11
2017-12-30T03:43:03.422Z,922.06
2017-12-30T03:43:31.503Z,922.08
2017-12-30T03:43:59.591Z,922.09
2017-12-30T03:44:27.661Z,922.08
2017-12-30T03:44:55.729Z,922.05
2017-12-30T03:45:23.919Z,922.05
2017-12-30T03:45:51.990Z,922.03
2017-12-30T03:47:03.023Z,922.05
2017-12-30T03:47:31.188Z,921.98
2017-12-30T03:47:59.361Z,922
2017-12-30T03:48:27.436Z,922.02
2017-12-30T03:48:55.324Z,921.91
2017-12-30T03:49:23.308Z,921.95
2017-12-30T03:49:51.502Z,921.95
2017-12-30T03:50:19.668Z,921.92
2017-12-30T03:50:47.833Z,921.92
2017-12-30T03:51:16.024Z,921.82
2017-12-30T03:51:44.092Z,921.91
2017-12-30T03:52:55.326Z,921.95
2017-12-30T03:53:23.388Z,921.86
2017-12-30T03:53:51.467Z,921.9
2017-12-30T03:54:19.447Z,921.91
2017-12-30T03:54:47.634Z,921.88
2017-12-30T03:55:15.714Z,921.92
2017-12-30T03:55:43.806Z,921.83
2017-12-30T03:56:11.873Z,921.87
2017-12-30T03:56:39.938Z,921.89
2017-12-30T03:57:08.131Z,921.85
2017-12-30T03:57:36.199Z,921.82
2017-12-30T03:58:47.339Z,921.84
2017-12-30T03:59:15.497Z,921.78
2017-12-30T03:59:43.572Z,921.79
2017-12-30T04:00:11.653Z,921.77
2017-12-30T04:00:39.736Z,921.74
2017-12-30T04:01:07.722Z,921.74
2017-12-30T04:01:35.914Z,921.78
2017-12-30T04:02:03.983Z,921.74
2017-12-30T04:02:32.049Z,921.75
2017-12-30T04:03:00.148Z,921.73
2017-12-30T04:03:28.326Z,921.72
2017-12-30T04:04:39.459Z,921.73
2017-12-30T04:05:07.324Z,921.77
2017-12-30T04:05:35.298Z,921.72
2017-12-30T04:06:03.278Z,921.73
2017-12-30T04:06:31.460Z,921.74
2017-12-30T04:06:59.539Z,921.72
2017-12-30T04:07:27.629Z,921.74
2017-12-30T04:07:55.603Z,921.74
2017-12-30T04:08:23.669Z,921.81
2017-12-30T04:08:51.756Z,921.8
2017-12-30T04:09:19.822Z,921.8
2017-12-30T04:10:31.053Z,921.81
2017-12-30T04:10:59.024Z,921.84
2017-12-30T04:11:27.100Z,921.83
2017-12-30T04:11:55.079Z,921.86
2017-12-30T04:12:23.167Z,921.85
2017-12-30T04:12:51.350Z,921.8
2017-12-30T04:13:19.444Z,921.77
2017-12-30T04:13:47.516Z,921.8
2017-12-30T04:14:15.588Z,921.78
2017-12-30T04:14:43.683Z,921.82
2017-12-30T04:15:11.854Z,921.83
2017-12-30T04:16:23.088Z,921.79
2017-12-30T04:16:51.153Z,921.79
2017-12-30T04:17:19.133Z,921.76
2017-12-30T04:17:47.309Z,921.71
2017-12-30T04:18:15.497Z,921.76
2017-12-30T04:18:43.582Z,921.69
2017-12-30T04:19:11.677Z,921.72
2017-12-30T04:19:39.746Z,921.79
2017-12-30T04:20:07.918Z,921.67
2017-12-30T04:20:36.009Z,921.77
2017-12-30T04:21:04.076Z,921.73
2017-12-30T04:22:15.313Z,921.74
2017-12-30T04:22:43.377Z,921.79
2017-12-30T04:23:11.456Z,921.81
2017-12-30T04:23:39.531Z,921.75
2017-12-30T04:24:07.715Z,921.75
2017-12-30T04:24:35.694Z,921.73
2017-12-30T04:25:03.792Z,921.74
2017-12-30T04:25:31.760Z,921.75
2017-12-30T04:25:59.726Z,921.79
2017-12-30T04:26:27.920Z,921.76
2017-12-30T04:26:56.086Z,921.72
2017-12-30T04:28:07.225Z,921.76
2017-12-30T04:28:35.386Z,921.74
2017-12-30T04:29:03.360Z,921.78
2017-12-30T04:29:31.237Z,921.75
2017-12-30T04:29:59.320Z,921.72
2017-12-30T04:30:27.306Z,921.72
2017-12-30T04:30:55.293Z,921.71
2017-12-30T04:31:23.359Z,921.74
2017-12-30T04:31:51.329Z,921.73
2017-12-30T04:32:19.522Z,921.74
2017-12-30T04:32:47.692Z,921.69
2017-12-30T04:33:58.821Z,921.67
2017-12-30T04:34:26.986Z,921.66
2017-12-30T04:34:55.166Z,921.65
2017-12-30T04:35:23.245Z,921.64
2017-12-30T04:35:51.231Z,921.63
2017-12-30T04:36:19.329Z,921.6
2017-12-30T04:36:47.411Z,921.59
2017-12-30T04:37:15.182Z,921.57
2017-12-30T04:37:43.354Z,921.57
2017-12-30T04:38:11.444Z,921.56
2017-12-30T04:38:39.619Z,921.56
2017-12-30T04:39:50.656Z,921.53
2017-12-30T04:40:18.623Z,921.47
2017-12-30T04:40:46.697Z,921.45
2017-12-30T04:41:14.775Z,921.45
2017-12-30T04:41:42.759Z,921.42
2017-12-30T04:42:10.842Z,921.42
2017-12-30T04:42:38.936Z,921.39
2017-12-30T04:43:06.812Z,921.4
2017-12-30T04:43:34.877Z,921.34
2017-12-30T04:44:02.862Z,921.35
2017-12-30T04:44:30.936Z,921.33
2017-12-30T04:45:42.067Z,921.37
2017-12-30T04:46:10.131Z,921.41
2017-12-30T04:46:38.303Z,921.35
2017-12-30T04:47:06.482Z,921.32
2017-12-30T04:47:34.568Z,921.31
2017-12-30T04:48:02.659Z,921.24
2017-12-30T04:48:30.756Z,921.29
2017-12-30T04:48:58.823Z,921.24
2017-12-30T04:49:26.889Z,921.22
2017-12-30T04:49:54.980Z,921.19
2017-12-30T04:50:23.047Z,921.23
2017-12-30T04:51:33.984Z,921.15
2017-12-30T04:52:02.137Z,921.08
2017-12-30T04:52:30.311Z,921.04
2017-12-30T04:52:58.492Z,921.07
2017-12-30T04:53:26.675Z,921.06
2017-12-30T04:53:54.456Z,921.08
2017-12-30T04:54:22.656Z,921.09
2017-12-30T04:54:50.725Z,921.05
2017-12-30T04:55:18.792Z,921.08
2017-12-30T04:55:46.983Z,921.12
2017-12-30T04:56:15.052Z,921.11
2017-12-30T04:57:26.183Z,921.08
2017-12-30T04:57:54.244Z,921.04
2017-12-30T04:58:22.318Z,920.98
2017-12-30T04:58:50.300Z,920.99
2017-12-30T04:59:18.382Z,921.06
2017-12-30T04:59:46.367Z,921.04
2017-12-30T05:00:14.563Z,921.01
2017-12-30T05:00:42.633Z,921.01
2017-12-30T05:01:10.696Z,921.03
2017-12-30T05:01:38.787Z,921.02
2017-12-30T05:02:06.757Z,920.97
2017-12-30T05:03:17.594Z,921.02
2017-12-30T05:03:45.759Z,920.95
2017-12-30T05:04:13.932Z,920.95
2017-12-30T05:04:42.009Z,920.98
2017-12-30T05:05:10.095Z,920.93
2017-12-30T05:05:37.976Z,920.97
2017-12-30T05:06:06.067Z,920.93
2017-12-30T05:06:34.132Z,920.95
2017-12-30T05:07:01.999Z,920.96
2017-12-30T05:07:30.088Z,920.96
2017-12-30T05:07:58.256Z,920.96
2017-12-30T05:09:09.389Z,920.98
2017-12-30T05:09:37.554Z,920.97
2017-12-30T05:10:05.734Z,920.98
2017-12-30T05:10:33.601Z,920.95
2017-12-30T05:11:01.383Z,921
2017-12-30T05:11:29.464Z,920.97
2017-12-30T05:11:57.657Z,920.94
2017-12-30T05:12:25.826Z,920.92
2017-12-30T05:12:53.989Z,920.92
2017-12-30T05:13:22.078Z,920.92
2017-12-30T05:13:50.251Z,920.91
2017-12-30T05:15:01.481Z,920.92
2017-12-30T05:15:29.645Z,920.98
2017-12-30T05:15:57.718Z,920.94
2017-12-30T05:16:25.694Z,921.01
2017-12-30T05:16:53.879Z,920.99
2017-12-30T05:17:21.760Z,920.99
2017-12-30T05:17:49.954Z,921.01
2017-12-30T05:18:18.120Z,921.01
2017-12-30T05:18:46.085Z,921
2017-12-30T05:19:14.178Z,920.99
2017-12-30T05:19:42.148Z,920.99
2017-12-30T05:20:53.185Z,921
2017-12-30T05:21:21.154Z,921.03
2017-12-30T05:21:49.230Z,921.03
2017-12-30T05:22:17.307Z,921.03
2017-12-30T05:22:45.392Z,921.06
2017-12-30T05:23:13.476Z,921.04
2017-12-30T05:23:41.669Z,921.05
2017-12-30T05:24:09.642Z,921.06
2017-12-30T05:24:37.811Z,921.04
2017-12-30T05:25:05.908Z,921.07
2017-12-30T05:25:34.082Z,921.07
2017-12-30T05:26:45.214Z,921.06
2017-12-30T05:27:13.383Z,921.04
2017-12-30T05:27:41.553Z,921.03
2017-12-30T05:28:09.634Z,921.03
2017-12-30T05:28:37.721Z,921.01
2017-12-30T05:29:05.793Z,921.01
2017-12-30T05:29:33.991Z,920.99
2017-12-30T05:30:01.956Z,920.99
2017-12-30T05:30:29.921Z,921.06
2017-12-30T05:30:58.011Z,921
2017-12-30T05:31:26.082Z,920.98
2017-12-30T05:32:37.210Z,920.99
2017-12-30T05:33:05.178Z,920.98
2017-12-30T05:33:33.254Z,920.99
2017-12-30T05:34:01.333Z,920.96
2017-12-30T05:34:29.515Z,920.93
2017-12-30T05:34:57.699Z,920.95
2017-12-30T05:35:25.791Z,920.99
2017-12-30T05:35:53.962Z,920.99
2017-12-30T05:36:22.030Z,920.96
2017-12-30T05:36:50.213Z,920.97
2017-12-30T05:37:18.389Z,920.98
2017-12-30T05:38:29.526Z,920.97
2017-12-30T05:38:57.688Z,921
2017-12-30T05:39:25.660Z,920.94
2017-12-30T05:39:53.640Z,920.97
2017-12-30T05:40:21.826Z,920.95
2017-12-30T05:40:49.907Z,920.92
2017-12-30T05:41:17.898Z,920.91
2017-12-30T05:41:45.970Z,920.91
2017-12-30T05:42:13.838Z,920.91
2017-12-30T05:42:42.036Z,920.92
2017-12-30T05:43:10.110Z,920.89
2017-12-30T05:44:21.339Z,920.9
2017-12-30T05:44:49.408Z,920.96
2017-12-30T05:45:17.589Z,920.93
2017-12-30T05:45:45.568Z,920.96
2017-12-30T05:46:13.757Z,920.92
2017-12-30T05:46:41.849Z,920.95
2017-12-30T05:47:10.041Z,920.94
2017-12-30T05:47:38.008Z,920.94
2017-12-30T05:48:06.174Z,920.92
2017-12-30T05:48:34.367Z,920.93
2017-12-30T05:49:02.537Z,920.92
2017-12-30T05:50:13.772Z,920.92
2017-12-30T05:50:41.938Z,920.89
2017-12-30T05:51:10.110Z,920.94
2017-12-30T05:51:38.190Z,920.91
2017-12-30T05:52:06.171Z,920.9
2017-12-30T05:52:34.256Z,920.9
2017-12-30T05:53:02.456Z,920.88
2017-12-30T05:53:30.627Z,920.92
2017-12-30T05:53:58.797Z,920.91
2017-12-30T05:54:26.988Z,920.9
2017-12-30T05:54:55.059Z,920.9
2017-12-30T05:56:06.297Z,920.89
2017-12-30T05:56:34.255Z,920.88
2017-12-30T05:57:02.326Z,920.93
2017-12-30T05:57:30.207Z,920.93
2017-12-30T05:57:58.394Z,920.97
2017-12-30T05:58:26.575Z,920.99
2017-12-30T05:58:54.766Z,920.96
2017-12-30T05:59:22.833Z,920.93
2017-12-30T05:59:50.996Z,921
2017-12-30T06:00:19.186Z,920.97
2017-12-30T06:00:47.360Z,920.97
2017-12-30T06:01:58.592Z,921
2017-12-30T06:02:26.757Z,921.02
2017-12-30T06:02:54.934Z,921.04
2017-12-30T06:03:22.914Z,921.04
2017-12-30T06:03:50.998Z,920.98
2017-12-30T06:04:18.785Z,921.01
2017-12-30T06:04:46.873Z,921
2017-12-30T06:05:14.745Z,921.06
2017-12-30T06:05:42.720Z,921.03
2017-12-30T06:06:10.808Z,921.07
2017-12-30T06:06:38.881Z,921.09
2017-12-30T06:07:50.113Z,921.11
2017-12-30T06:08:18.275Z,921.11
2017-12-30T06:08:46.450Z,921.12
2017-12-30T06:09:14.627Z,921.13
2017-12-30T06:09:42.718Z,921.15
2017-12-30T06:10:10.702Z,921.13
2017-12-30T06:10:38.794Z,921.16
2017-12-30T06:11:06.761Z,921.17
2017-12-30T06:11:34.825Z,921.2
2017-12-30T06:12:02.818Z,921.18
2017-12-30T06:12:30.889Z,921.17
2017-12-30T06:13:42.020Z,921.19
2017-12-30T06:14:10.185Z,921.2
2017-12-30T06:14:38.267Z,921.17
2017-12-30T06:15:06.047Z,921.17
2017-12-30T06:15:34.233Z,921.21
2017-12-30T06:16:02.319Z,921.19
2017-12-30T06:16:30.515Z,921.18
2017-12-30T06:16:58.587Z,921.2
2017-12-30T06:17:26.750Z,921.19
2017-12-30T06:17:54.839Z,921.22
2017-12-30T06:18:22.903Z,921.2
2017-12-30T06:19:34.135Z,921.22
2017-12-30T06:20:02.002Z,921.21
2017-12-30T06:20:30.180Z,921.16
2017-12-30T06:20:58.156Z,921.2
2017-12-30T06:21:26.241Z,921.18
2017-12-30T06:21:54.418Z,921.21
2017-12-30T06:22:22.515Z,921.18
2017-12-30T06:22:50.584Z,921.21
2017-12-30T06:23:18.748Z,921.18
2017-12-30T06:23:46.946Z,921.16
2017-12-30T06:24:15.021Z,921.11
2017-12-30T06:25:26.149Z,921.12
2017-12-30T06:25:54.215Z,921.05
2017-12-30T06:26:22.394Z,921.06
2017-12-30T06:26:50.368Z,920.99
2017-12-30T06:27:18.457Z,921
2017-12-30T06:27:46.434Z,920.96
2017-12-30T06:28:14.527Z,920.97
2017-12-30T06:28:42.695Z,920.96
2017-12-30T06:29:10.559Z,920.94
2017-12-30T06:29:38.653Z,920.92
2017-12-30T06:30:06.722Z,920.88
2017-12-30T06:31:17.950Z,920.91
2017-12-30T06:31:46.115Z,920.93
2017-12-30T06:32:14.186Z,920.93
2017-12-30T06:32:42.270Z,920.9
2017-12-30T06:33:10.349Z,920.89
2017-12-30T06:33:38.334Z,920.89
2017-12-30T06:34:06.530Z,920.92
2017-12-30T06:34:34.498Z,920.91
2017-12-30T06:35:02.569Z,920.88
2017-12-30T06:35:30.759Z,920.92
2017-12-30T06:35:58.932Z,920.87
2017-12-30T06:37:09.969Z,920.86
2017-12-30T06:37:38.134Z,920.9
2017-12-30T06:38:06.213Z,920.83
2017-12-30T06:38:34.190Z,920.86
2017-12-30T06:39:02.283Z,920.86
2017-12-30T06:39:30.361Z,920.87
2017-12-30T06:39:58.453Z,920.84
2017-12-30T06:40:26.523Z,920.84